Terminal Aerodrome Forecast
Issued by NWS

Current Version | Previous Version | Text Only | Print | Product List | Glossary Off
Versions: 1 2 3 4 5 6 7 8 9 10 11 12 13 14 15 16 17 18 19 20 21 22 23 24

324
FTUS41 KRLX 010532
TAFCKB
TAF
KCKB 010532Z 0106/0206 26007KT P6SM BKN025 OVC080
     FM011000 26010G17KT P6SM BKN035
     FM011300 26009G15KT P6SM OVC030
     FM020000 26008G14KT P6SM OVC035
     FM020100 26007KT P6SM OVC035=

USA.gov is the U.S. government's official web portal to all federal, state and local government web resources and services.